CheckWX is a tool to help pilots better visualize weather data.  It is not intended as a substitute for an official pre-flight weather briefing.

10:02:21 UTC

KHQM METAR
Bowerman Airport
Hoquiam, Washington, USA
Current

9 mins ago

KHQM 200953Z AUTO 33006KT 9SM SCT026 BKN034 BKN070 05/03 A2986 RMK AO2 RAB00E38 SLP114 P0004 T00500033
Observed
Feb-20 @ 09:53 UTC
Wind
  • 330° at 6 KTS
Visibility
14,484 meters
Flight Rules
VFR
Cloud Levels
  • Scattered at 2,600' AGL
  • Broken at 3,400' AGL
  • Broken at 7,000' AGL
Temperature
C / 41°F
Dewpoint
C / 37°F
Humidity
87%
Altimeter
29.86" Hg
Pressure
1011.4 hPa
Current Rain
0.04"
Previous

34 mins ago

KHQM 200928Z AUTO 30008KT 3SM -RA BR BKN027 BKN033 OVC043 05/03 A2986 RMK AO2 RAB00 P0004 T00500033
Observed
Feb-20 @ 09:28 UTC
Wind
  • 300° at 8 KTS
Visibility
4,828 meters
Flight Rules
MVFR
Conditions
Light Rain, Mist
Cloud Levels
  • Broken at 2,700' AGL
  • Broken at 3,300' AGL
  • Overcast at 4,300' AGL
Temperature
C / 41°F
Dewpoint
C / 37°F
Humidity
87%
Altimeter
29.86" Hg
Pressure
1011.22 hPa
Current Rain
0.04"
Previous

1 hour ago

KHQM 200853Z AUTO 26005KT 10SM FEW026 BKN070 OVC120 05/03 A2987 RMK AO2 RAB29E42 SLP117 P0000 60003 T00500028 57010
Observed
Feb-20 @ 08:53 UTC
Wind
  • 260° at 5 KTS
Visibility
16,093 meters
Flight Rules
VFR
Cloud Levels
  • Few at 2,600' AGL
  • Broken at 7,000' AGL
  • Overcast at 12,000' AGL
Temperature
C / 41°F
Dewpoint
C / 37°F
Humidity
87%
Altimeter
29.87" Hg
Pressure
1011.7 hPa
Current Rain
0.01"